Data for 11/04/2015

Time Sea-Level Adjusted Pressure Absolute Pressure Temperature Relative Humidity Dew Point   
(mb) (inHg) (mb) (inHg) (C) (F) (%) (C) (F)
00:05 1012 29.88 841 24.83 -0.9 30.4 94 -1.7 29
00:10 1012 29.88 841 24.83 -0.9 30.4 94 -1.7 28.9
00:15 1012 29.88 841 24.83 -0.9 30.4 94 -1.7 29
00:20 1012 29.88 841 24.83 -0.9 30.5 94 -1.7 29
00:25 1012 29.88 841 24.83 -0.8 30.5 94 -1.6 29.1
00:30 1012 29.88 841 24.83 -0.8 30.5 94 -1.6 29.1
00:35 1012 29.88 841 24.83 -0.8 30.6 94 -1.6 29.2
00:40 1012 29.88 841 24.83 -0.8 30.5 94 -1.6 29.1
00:45 1012 29.88 841 24.83 -0.8 30.5 94 -1.6 29.1
00:50 1012 29.88 841 24.83 -0.8 30.6 94 -1.6 29.2
00:55 1012 29.88 841 24.83 -0.8 30.6 94 -1.6 29.2
01:00 1012 29.88 841 24.83 -0.8 30.6 94 -1.6 29.2
01:05 1012 29.88 841 24.83 -0.7 30.7 95 -1.5 29.3
01:10 1012 29.88 841 24.83 -0.7 30.8 94 -1.5 29.3
01:15 1012 29.88 842 24.86 -0.7 30.7 95 -1.5 29.4
01:20 1012 29.88 842 24.86 -0.6 30.8 94 -1.5 29.4
01:25 1012 29.88 842 24.86 -0.6 30.8 94 -1.4 29.4
01:30 1012 29.88 842 24.86 -0.6 30.9 94 -1.4 29.4
01:35 1013 29.91 842 24.86 -0.6 30.9 94 -1.4 29.4
01:40 1013 29.91 842 24.86 -0.7 30.8 94 -1.5 29.3
01:45 1013 29.91 842 24.86 -0.7 30.8 94 -1.5 29.3
01:50 1013 29.91 842 24.86 -0.7 30.8 94 -1.5 29.3
01:55 1013 29.91 842 24.86 -0.8 30.6 94 -1.6 29.1
02:00 1013 29.91 842 24.86 -0.8 30.6 94 -1.6 29.1
02:05 1013 29.91 842 24.86 -0.8 30.6 94 -1.6 29.2
02:10 1013 29.91 842 24.86 -0.8 30.6 94 -1.6 29.2
02:15 1013 29.91 842 24.86 -0.8 30.6 94 -1.6 29.2
02:20 1013 29.91 842 24.86 -0.8 30.6 95 -1.6 29.2
02:25 1013 29.91 842 24.86 -0.9 30.5 95 -1.6 29.1
02:30 1013 29.91 842 24.86 -0.9 30.4 95 -1.6 29
02:35 1013 29.91 842 24.86 -0.9 30.4 95 -1.7 29
02:40 1013 29.91 842 24.86 -0.9 30.4 95 -1.6 29.1
02:45 1013 29.91 842 24.86 -0.9 30.4 95 -1.6 29.1
02:50 1013 29.91 842 24.86 -0.8 30.5 95 -1.6 29.1
02:55 1013 29.91 842 24.86 -0.8 30.5 95 -1.6 29.2
03:00 1013 29.91 842 24.86 -0.8 30.5 95 -1.6 29.2
03:05 1013 29.91 842 24.86 -0.8 30.5 95 -1.6 29.1
03:10 1013 29.91 842 24.86 -0.8 30.5 95 -1.6 29.2
03:15 1013 29.91 842 24.86 -0.8 30.5 94 -1.6 29.1
03:20 1013 29.91 842 24.86 -0.7 30.7 95 -1.5 29.3
03:25 1013 29.91 842 24.86 -0.7 30.7 94 -1.5 29.2
03:30 1013 29.91 842 24.86 -0.8 30.6 94 -1.5 29.2
03:35 1013 29.91 842 24.86 -0.8 30.6 94 -1.6 29.1
03:40 1013 29.91 842 24.86 -0.8 30.5 94 -1.6 29.1
03:45 1013 29.91 842 24.86 -0.8 30.5 94 -1.6 29.1
03:50 1013 29.91 842 24.86 -0.8 30.6 94 -1.6 29.1
03:55 1013 29.91 842 24.86 -0.9 30.5 94 -1.7 29
04:00 1013 29.91 842 24.86 -0.9 30.4 94 -1.7 28.9
04:05 1013 29.91 842 24.86 -1 30.3 94 -1.8 28.8
04:10 1013 29.91 842 24.86 -1 30.2 94 -1.8 28.8
04:15 1013 29.91 842 24.86 -1 30.2 94 -1.8 28.8
04:20 1013 29.91 843 24.89 -1.1 30.1 94 -1.9 28.7
04:25 1013 29.91 843 24.89 -1.1 30 94 -1.9 28.5
04:30 1013 29.91 843 24.89 -1.2 29.9 94 -2 28.5
04:35 1013 29.91 843 24.89 -1.2 29.8 94 -2 28.3
04:40 1014 29.94 843 24.89 -1.2 29.8 94 -2 28.4
04:45 1014 29.94 843 24.89 -1.2 29.8 94 -2 28.4
04:50 1014 29.94 843 24.89 -1.2 29.8 94 -2 28.3
04:55 1014 29.94 843 24.89 -1.3 29.7 94 -2.1 28.3
05:00 1014 29.94 843 24.89 -1.3 29.7 94 -2.1 28.2
05:05 1014 29.94 843 24.89 -1.3 29.7 94 -2.1 28.1
05:10 1014 29.94 843 24.89 -1.3 29.6 94 -2.2 28.1
05:15 1014 29.94 843 24.89 -1.4 29.5 94 -2.2 28
05:20 1014 29.94 843 24.89 -1.4 29.5 94 -2.3 27.9
05:25 1014 29.94 843 24.89 -1.4 29.5 94 -2.3 27.9
05:30 1014 29.94 843 24.89 -1.4 29.4 94 -2.3 27.8
05:35 1014 29.94 843 24.89 -1.4 29.4 94 -2.3 27.8
05:40 1014 29.94 843 24.89 -1.5 29.4 94 -2.4 27.7
05:45 1014 29.94 843 24.89 -1.5 29.3 94 -2.4 27.7
05:50 1014 29.94 843 24.89 -1.5 29.3 94 -2.4 27.7
05:55 1014 29.94 843 24.89 -1.5 29.3 94 -2.4 27.6
06:00 1014 29.94 843 24.89 -1.5 29.3 94 -2.4 27.7
06:05 1014 29.94 843 24.89 -1.5 29.3 94 -2.4 27.7
06:10 1014 29.94 843 24.89 -1.5 29.2 94 -2.4 27.6
06:15 1014 29.94 843 24.89 -1.6 29.2 94 -2.4 27.6
06:20 1014 29.94 843 24.89 -1.6 29.2 94 -2.4 27.6
06:25 1014 29.94 843 24.89 -1.6 29.1 94 -2.5 27.6
06:30 1014 29.94 843 24.89 -1.6 29.1 94 -2.5 27.6
06:35 1014 29.94 843 24.89 -1.6 29.1 94 -2.5 27.5
06:40 1014 29.94 843 24.89 -1.7 29 94 -2.5 27.4
06:45 1014 29.94 843 24.89 -1.7 28.9 94 -2.6 27.3
06:50 1014 29.94 843 24.89 -1.7 28.9 94 -2.6 27.3
06:55 1014 29.94 843 24.89 -1.7 28.9 94 -2.6 27.3
07:00 1014 29.94 843 24.89 -1.7 28.9 94 -2.6 27.3
07:05 1014 29.94 844 24.92 -1.7 28.9 94 -2.6 27.3
07:10 1014 29.94 844 24.92 -1.7 28.9 94 -2.6 27.3
07:15 1014 29.94 844 24.92 -1.7 28.9 94 -2.6 27.3
07:20 1014 29.94 844 24.92 -1.7 28.9 94 -2.6 27.3
07:25 1014 29.94 844 24.92 -1.7 29 94 -2.5 27.4
07:30 1015 29.97 844 24.92 -1.7 29 94 -2.5 27.4
07:35 1015 29.97 844 24.92 -1.7 28.9 94 -2.6 27.3
07:40 1015 29.97 844 24.92 -1.7 28.9 94 -2.6 27.3
07:45 1015 29.97 844 24.92 -1.7 28.9 94 -2.6 27.4
07:50 1015 29.97 844 24.92 -1.7 28.9 94 -2.6 27.3
07:55 1015 29.97 844 24.92 -1.8 28.8 94 -2.6 27.2
08:00 1015 29.97 844 24.92 -1.8 28.8 94 -2.6 27.3
08:05 1015 29.97 844 24.92 -1.8 28.8 94 -2.7 27.2
08:10 1015 29.97 844 24.92 -1.8 28.8 94 -2.6 27.3
08:15 1015 29.97 844 24.92 -1.7 28.9 94 -2.6 27.4
08:20 1015 29.97 844 24.92 -1.8 28.8 94 -2.7 27.2
08:25 1015 29.97 844 24.92 -1.9 28.7 93 -2.8 27
08:30 1015 29.97 844 24.92 -1.8 28.7 93 -2.8 27
08:35 1015 29.97 844 24.92 -1.8 28.8 93 -2.7 27.1
08:40 1015 29.97 844 24.92 -1.7 28.9 93 -2.7 27.1
08:45 1015 29.97 845 24.95 -1.7 28.9 93 -2.7 27.1
08:50 1015 29.97 845 24.95 -1.7 29 92 -2.7 27.1
08:55 1015 29.97 845 24.95 -1.7 29 92 -2.7 27.1
09:00 1016 30 845 24.95 -1.7 29 92 -2.8 27
09:05 1016 30 845 24.95 -1.6 29 92 -2.8 27
09:10 1016 30 845 24.95 -1.6 29.1 92 -2.7 27.1
09:15 1016 30 845 24.95 -1.6 29.2 92 -2.8 27
09:20 1016 30 845 24.95 -1.6 29.2 92 -2.7 27.1
09:25 1016 30 845 24.95 -1.5 29.2 92 -2.7 27.1
09:30 1016 30 845 24.95 -1.6 29.2 92 -2.7 27.1
09:35 1016 30 845 24.95 -1.6 29.1 92 -2.8 27
09:40 1016 30 845 24.95 -1.6 29.2 92 -2.7 27.1
09:45 1016 30 845 24.95 -1.5 29.2 92 -2.7 27.1
09:50 1016 30 845 24.95 -1.5 29.2 92 -2.7 27.1
09:55 1016 30 845 24.95 -1.6 29.2 92 -2.8 27
10:00 1016 30 845 24.95 -1.5 29.3 92 -2.7 27.1
10:05 1016 30 845 24.95 -1.6 29.2 92 -2.8 27
10:10 1016 30 845 24.95 -1.6 29.2 91 -2.8 27
10:15 1016 30 845 24.95 -1.5 29.3 91 -2.8 26.9
10:20 1016 30 845 24.95 -1.4 29.4 91 -2.8 27
10:25 1016 30 845 24.95 -1.4 29.4 91 -2.8 27
10:30 1016 30 845 24.95 -1.4 29.5 91 -2.7 27.2
10:35 1016 30 845 24.95 -1.3 29.6 91 -2.5 27.4
10:40 1016 30 845 24.95 -1.2 29.8 90 -2.6 27.3
10:45 1016 30 845 24.95 -1.1 30 90 -2.6 27.3
10:50 1016 30 845 24.95 -1.1 30.1 89 -2.6 27.3
10:55 1016 30 845 24.95 -1 30.2 90 -2.5 27.6
11:00 1016 30 845 24.95 -0.9 30.5 88 -2.5 27.4
11:05 1016 30 845 24.95 -0.9 30.4 89 -2.5 27.4
11:10 1016 30 845 24.95 -0.9 30.5 88 -2.6 27.3
11:15 1016 30 845 24.95 -0.8 30.6 87 -2.6 27.3
11:20 1016 30 845 24.95 -0.8 30.6 87 -2.6 27.3
11:25 1016 30 845 24.95 -0.8 30.5 88 -2.6 27.3
11:30 1016 30 845 24.95 -0.8 30.5 88 -2.5 27.4
11:35 1016 30 845 24.95 -0.6 30.8 88 -2.5 27.6
11:40 1016 30 845 24.95 -0.6 31 88 -2.3 27.9
11:45 1016 30 845 24.95 -0.3 31.5 86 -2.3 27.8
11:50 1016 30 845 24.95 -0.4 31.3 88 -2.2 28.1
11:55 1016 30 845 24.95 -0.5 31.2 88 -2.3 27.9
12:00 1016 30 845 24.95 -0.6 31 87 -2.4 27.6
12:05 1016 30 845 24.95 -0.8 30.6 89 -2.4 27.6
12:10 1016 30 845 24.95 -0.8 30.6 89 -2.4 27.7
12:15 1016 30 845 24.95 -0.7 30.7 88 -2.4 27.7
12:20 1016 30 845 24.95 -0.5 31.1 88 -2.3 27.9
12:25 1016 30 845 24.95 -0.5 31.1 88 -2.3 27.9
12:30 1016 30 845 24.95 -0.4 31.3 88 -2.2 28.1
12:35 1016 30 845 24.95 -0.5 31.2 88 -2.2 28
12:40 1016 30 845 24.95 -0.3 31.5 87 -2.1 28.1
12:45 1016 30 845 24.95 -0.2 31.7 86 -2.1 28.1
12:50 1016 30 845 24.95 -0.1 31.8 84 -2.4 27.6
12:55 1016 30 845 24.95 -0.2 31.7 85 -2.4 27.8
13:00 1016 30 845 24.95 -0.2 31.6 87 -2.2 28.1
13:05 1016 30 845 24.95 0 32 86 -2 28.4
13:10 1016 30 845 24.95 0.3 32.6 84 -2.1 28.3
13:15 1016 30 845 24.95 0.1 32.2 86 -2 28.4
13:20 1016 30 845 24.95 0.1 32.2 85 -2.1 28.2
13:25 1016 30 845 24.95 0.2 32.4 85 -2 28.5
13:30 1015 29.97 845 24.95 0.4 32.6 83 -2.2 28.1
13:35 1015 29.97 845 24.95 0.3 32.5 84 -2.2 28
13:40 1015 29.97 845 24.95 0.3 32.5 84 -2.1 28.3
13:45 1015 29.97 845 24.95 0.2 32.4 86 -1.8 28.8
13:50 1015 29.97 844 24.92 0.8 33.5 83 -1.7 29
13:55 1015 29.97 844 24.92 1.1 34 80 -2 28.4
14:00 1015 29.97 844 24.92 0.8 33.4 82 -2 28.5
14:05 1015 29.97 844 24.92 1.2 34.1 79 -2.1 28.2
14:10 1015 29.97 844 24.92 1.1 33.9 83 -1.4 29.4
14:15 1015 29.97 844 24.92 0.7 33.2 84 -1.8 28.8
14:20 1015 29.97 844 24.92 0.3 32.5 85 -1.9 28.6
14:25 1015 29.97 844 24.92 -0.2 31.7 85 -2.4 27.6
14:30 1015 29.97 844 24.92 -0.4 31.3 86 -2.5 27.5
14:35 1015 29.97 844 24.92 -0.4 31.3 86 -2.5 27.6
14:40 1015 29.97 844 24.92 -0.3 31.5 86 -2.4 27.7
14:45 1015 29.97 844 24.92 -0.2 31.6 86 -2.2 28
14:50 1015 29.97 844 24.92 -0.2 31.7 86 -2.3 27.9
14:55 1015 29.97 844 24.92 -0.2 31.7 86 -2.2 28.1
15:00 1015 29.97 844 24.92 0.1 32.1 84 -2.3 27.9
15:05 1015 29.97 844 24.92 0.1 32.2 86 -2 28.4
15:10 1015 29.97 844 24.92 0.3 32.6 83 -2.3 27.9
15:15 1015 29.97 844 24.92 -0.1 31.7 84 -2.5 27.5
15:20 1015 29.97 844 24.92 0.1 32.1 82 -2.7 27.2
15:25 1015 29.97 844 24.92 0 32.1 82 -2.6 27.3
15:30 1015 29.97 844 24.92 0.3 32.6 79 -2.8 26.9
15:35 1015 29.97 844 24.92 0.1 32.2 81 -2.7 27.1
15:40 1015 29.97 844 24.92 0.2 32.4 81 -2.7 27.2
15:45 1015 29.97 844 24.92 -0.1 31.9 82 -2.8 26.9
15:50 1015 29.97 844 24.92 -0.2 31.7 82 -2.9 26.7
15:55 1015 29.97 844 24.92 -0.1 31.9 81 -2.9 26.7
16:00 1015 29.97 844 24.92 -0 32 79 -3.3 26
16:05 1015 29.97 844 24.92 -0.1 31.9 80 -3.2 26.3
16:10 1015 29.97 844 24.92 -0.2 31.7 80 -3.3 26.1
16:15 1015 29.97 844 24.92 -0.2 31.6 82 -3 26.6
16:20 1015 29.97 845 24.95 -0.1 31.8 81 -3.1 26.5
16:25 1015 29.97 845 24.95 -0.1 31.8 80 -3.1 26.5
16:30 1015 29.97 845 24.95 -0.1 31.7 81 -3.1 26.4
16:35 1015 29.97 845 24.95 -0.4 31.4 82 -3.1 26.4
16:40 1015 29.97 845 24.95 -0.5 31.1 81 -3.3 26
16:45 1015 29.97 845 24.95 -0.3 31.4 80 -3.4 26
16:50 1015 29.97 845 24.95 -0.4 31.3 80 -3.5 25.7
16:55 1016 30 845 24.95 -0.5 31.2 80 -3.5 25.7
17:00 1016 30 845 24.95 -0.4 31.3 80 -3.4 25.9
17:05 1016 30 845 24.95 -0.3 31.4 81 -3.3 26.1
17:10 1016 30 845 24.95 -0.3 31.4 80 -3.4 25.8
17:15 1016 30 845 24.95 -0.4 31.2 80 -3.5 25.6
17:20 1016 30 845 24.95 -0.3 31.4 80 -3.4 25.9
17:25 1016 30 845 24.95 -0.2 31.6 79 -3.4 25.9
17:30 1016 30 845 24.95 -0.3 31.4 79 -3.6 25.6
17:35 1016 30 845 24.95 -0.4 31.3 77 -3.9 25
17:40 1016 30 845 24.95 -0.4 31.3 78 -3.7 25.3
17:45 1016 30 845 24.95 -0.3 31.4 77 -3.8 25.1
17:50 1016 30 845 24.95 -0.4 31.2 78 -3.8 25.2
17:55 1016 30 845 24.95 -0.5 31.2 78 -3.8 25.2
18:00 1016 30 845 24.95 -0.3 31.4 76 -4 24.9
18:05 1016 30 845 24.95 -0.3 31.5 76 -4 24.8
18:10 1016 30 845 24.95 -0.2 31.6 76 -4 24.8
18:15 1016 30 845 24.95 -0.2 31.6 76 -3.9 24.9
18:20 1016 30 845 24.95 -0.2 31.6 75 -4.2 24.5
18:25 1016 30 845 24.95 -0.2 31.7 75 -4 24.8
18:30 1016 30 845 24.95 -0.1 31.8 75 -4.1 24.6
18:35 1016 30 845 24.95 -0.1 31.8 73 -4.3 24.2
18:40 1016 30 845 24.95 -0.1 31.8 73 -4.4 24
18:45 1016 30 845 24.95 -0.1 31.9 72 -4.5 23.8
18:50 1016 30 845 24.95 -0 32 73 -4.3 24.3
18:55 1016 30 845 24.95 0 32 73 -4.2 24.4
19:00 1016 30 845 24.95 0.1 32.1 74 -4.1 24.6
19:05 1016 30 845 24.95 0.1 32.2 75 -3.8 25.1
19:10 1016 30 845 24.95 0.1 32.2 74 -4 24.9
19:15 1016 30 845 24.95 0.1 32.2 75 -3.8 25.2
19:20 1016 30 845 24.95 0.1 32.1 74 -4.1 24.7
19:25 1016 30 845 24.95 0 32 77 -3.5 25.7
19:30 1016 30 845 24.95 0 32 79 -3.1 26.4
19:35 1016 30 845 24.95 -0.1 31.9 80 -3.1 26.5
19:40 1016 30 845 24.95 -0.2 31.7 82 -2.9 26.7
19:45 1016 30 845 24.95 -0.3 31.4 84 -2.8 27
19:50 1016 30 845 24.95 -0.4 31.3 83 -2.9 26.7
19:55 1016 30 845 24.95 -0.4 31.2 82 -3.1 26.5
20:00 1016 30 845 24.95 -0.4 31.3 83 -2.9 26.8
20:05 1016 30 845 24.95 -0.4 31.3 84 -2.7 27.1
20:10 1016 30 845 24.95 -0.4 31.2 83 -3 26.6
20:15 1016 30 845 24.95 -0.4 31.3 83 -2.9 26.9
20:20 1016 30 845 24.95 -0.3 31.4 81 -3.2 26.3
20:25 1016 30 845 24.95 -0.2 31.6 83 -2.8 27
20:30 1016 30 845 24.95 -0.3 31.4 85 -2.6 27.3
20:35 1016 30 845 24.95 -0.4 31.3 86 -2.5 27.5
20:40 1016 30 845 24.95 -0.5 31.2 85 -2.7 27.2
20:45 1016 30 845 24.95 -0.5 31.2 83 -2.9 26.7
20:50 1016 30 845 24.95 -0.5 31.2 84 -2.8 26.9
20:55 1016 30 845 24.95 -0.4 31.3 83 -2.9 26.8
21:00 1016 30 845 24.95 -0.4 31.3 82 -3 26.5
21:05 1016 30 845 24.95 -0.4 31.3 82 -3.2 26.3
21:10 1016 30 845 24.95 -0.3 31.5 83 -2.9 26.8
21:15 1016 30 845 24.95 -0.3 31.5 83 -2.8 27
21:20 1016 30 845 24.95 -0.3 31.4 84 -2.7 27.2
21:25 1016 30 845 24.95 -0.4 31.3 85 -2.7 27.2
21:30 1016 30 845 24.95 -0.4 31.2 86 -2.4 27.6
21:35 1016 30 845 24.95 -0.5 31.1 87 -2.4 27.8
21:40 1016 30 845 24.95 -0.6 30.9 88 -2.4 27.6
21:45 1016 30 845 24.95 -0.6 30.9 88 -2.4 27.7
21:50 1016 30 845 24.95 -0.6 31 87 -2.5 27.6
21:55 1016 30 845 24.95 -0.5 31.2 86 -2.6 27.4
22:00 1016 30 845 24.95 -0.4 31.4 85 -2.6 27.3
22:05 1016 30 845 24.95 -0.3 31.5 80 -3.3 26.1
22:10 1016 30 845 24.95 -0.1 31.9 79 -3.3 26.1
22:15 1016 30 845 24.95 0.1 32.1 77 -3.5 25.7
22:20 1016 30 845 24.95 0.1 32.2 79 -3.2 26.2
22:25 1016 30 845 24.95 0 32.1 81 -2.9 26.8
22:30 1016 30 845 24.95 -0.1 31.9 80 -3.2 26.3
22:35 1016 30 845 24.95 -0.1 31.7 81 -2.9 26.7
22:40 1016 30 845 24.95 -0.2 31.7 80 -3.3 26.1
22:45 1016 30 845 24.95 -0.2 31.7 79 -3.3 26
22:50 1016 30 845 24.95 -0.2 31.7 80 -3.2 26.2
22:55 1016 30 845 24.95 -0.1 31.8 81 -3.1 26.5
23:00 1016 30 845 24.95 -0.1 31.8 81 -3.1 26.4
23:05 1016 30 845 24.95 -0.2 31.7 80 -3.2 26.3
23:10 1016 30 845 24.95 -0.2 31.7 80 -3.1 26.3
23:15 1016 30 845 24.95 -0.2 31.6 79 -3.3 26
23:20 1016 30 845 24.95 -0.2 31.7 79 -3.3 26
23:25 1016 30 845 24.95 -0.2 31.7 77 -3.8 25.1
23:30 1016 30 845 24.95 -0.1 31.8 77 -3.7 25.4
23:35 1016 30 845 24.95 -0.1 31.8 76 -3.8 25.1
23:40 1016 30 845 24.95 -0.1 31.9 76 -3.8 25.2
23:45 1016 30 845 24.95 -0 32 77 -3.6 25.5
23:50 1015 29.97 845 24.95 -0.1 31.9 77 -3.6 25.5
23:55 1015 29.97 845 24.95 -0 31.9 77 -3.6 25.5
24:00 1015 29.97 845 24.95 -0.1 31.8 76 -3.8 25.1